.
WxDataArchive / Data Records for 2013-01-14
2013-01-13 January 2013 2013-01-15

Data Records for Monday, 14 January 2013

Time	Temp	Chill	HIndex	Humid	Dewpt	 Wind 	HiWind	WindDir	Rain 	Barom 
-----	----	-----	------	-----	-----	------	------	-------	-----	----- 
00:00	25.1	25.1	25.1	83	20.7	2	7	270	0.00	30.155 
00:05	24.8	24.8	24.8	83	20.4	3	7	0	0.00	30.155 
00:10	24.4	24.4	24.4	82	19.7	2	5	315	0.00	30.155 
00:15	24.2	24.2	24.2	82	19.5	3	7	315	0.00	30.165 
00:20	24.1	24.1	24.1	82	19.4	3	6	270	0.00	30.165 
00:25	24.1	24.1	24.1	82	19.4	2	4	292	0.00	30.165 
00:30	24.1	24.1	24.1	82	19.4	2	6	248	0.00	30.179 
00:35	23.9	23.9	23.9	82	19.2	2	5	248	0.00	30.179 
00:40	23.8	23.8	23.8	81	18.8	3	9	315	0.00	30.179 
00:45	23.6	23.6	23.6	81	18.6	3	6	248	0.00	30.182 
00:50	23.8	23.8	23.8	81	18.8	2	7	248	0.00	30.182 
00:55	23.8	23.8	23.8	81	18.8	3	6	248	0.00	30.182 
01:00	23.8	23.8	23.8	81	18.8	3	7	270	0.00	30.184 
01:05	23.8	23.8	23.8	81	18.8	2	5	270	0.00	30.184 
01:10	23.6	23.6	23.6	80	18.4	2	5	270	0.00	30.184 
01:15	23.6	23.6	23.6	80	18.4	2	6	270	0.00	30.184 
01:20	23.6	23.6	23.6	81	18.6	2	4	315	0.00	30.184 
01:25	23.6	23.6	23.6	81	18.6	1	4	270	0.00	30.184 
01:30	23.6	23.6	23.6	81	18.6	2	6	248	0.00	30.198 
01:35	23.6	23.6	23.6	81	18.6	2	4	248	0.00	30.198 
01:40	23.5	23.5	23.5	80	18.3	2	6	248	0.00	30.198 
01:45	23.2	23.2	23.2	80	18.0	2	5	248	0.00	30.211 
01:50	23.0	23.0	23.0	80	17.8	2	4	248	0.00	30.211 
01:55	22.9	22.9	22.9	79	17.4	3	6	270	0.00	30.211 
02:00	22.7	22.7	22.7	79	17.2	3	6	270	0.00	30.217 
02:05	22.7	22.7	22.7	79	17.2	3	6	248	0.00	30.217 
02:10	22.7	22.7	22.7	79	17.2	2	5	270	0.00	30.217 
02:15	22.9	22.9	22.9	80	17.7	2	5	315	0.00	30.228 
02:20	22.9	22.9	22.9	80	17.7	2	5	315	0.00	30.228 
02:25	22.9	22.9	22.9	80	17.7	1	3	270	0.00	30.228 
02:30	22.9	22.9	22.9	80	17.7	1	4	315	0.00	30.237 
02:35	22.7	22.7	22.7	81	17.8	2	4	248	0.00	30.237 
02:40	22.7	22.7	22.7	81	17.8	1	3	248	0.00	30.237 
02:45	22.5	22.5	22.5	81	17.6	2	4	270	0.00	30.247 
02:50	22.4	22.4	22.4	81	17.5	2	4	248	0.00	30.247 
02:55	22.1	22.1	22.1	80	16.9	2	4	270	0.00	30.247 
03:00	21.9	21.9	21.9	80	16.7	2	5	248	0.00	30.264 
03:05	21.6	21.6	21.6	80	16.4	1	3	248	0.00	30.264 
03:10	21.6	21.6	21.6	80	16.4	1	3	248	0.00	30.264 
03:15	21.4	21.4	21.4	80	16.2	1	4	248	0.00	30.271 
03:20	21.3	21.3	21.3	80	16.1	1	4	292	0.00	30.271 
03:25	21.1	21.1	21.1	80	15.9	2	5	248	0.00	30.271 
03:30	21.0	21.0	21.0	79	15.5	2	6	248	0.00	30.281 
03:35	20.6	20.6	20.6	79	15.1	2	6	248	0.00	30.281 
03:40	20.3	20.3	20.3	79	14.8	3	5	248	0.00	30.281 
03:45	20.2	20.2	20.2	79	14.8	2	4	270	0.00	30.285 
03:50	20.0	20.0	20.0	79	14.6	2	4	248	0.00	30.285 
03:55	19.9	19.9	19.9	80	14.7	1	4	315	0.00	30.285 
04:00	19.9	19.9	19.9	80	14.7	1	5	338	0.00	30.289 
04:05	19.9	19.9	19.9	80	14.7	1	4	315	0.00	30.289 
04:10	19.9	19.9	19.9	80	14.7	1	4	248	0.00	30.289 
04:15	20.0	20.0	20.0	81	15.1	1	4	248	0.00	30.301 
04:20	19.9	19.9	19.9	80	14.7	1	6	338	0.00	30.301 
04:25	19.9	19.9	19.9	81	15.0	1	5	225	0.00	30.301 
04:30	19.9	19.9	19.9	81	15.0	2	4	338	0.00	30.304 
04:35	19.9	19.9	19.9	81	15.0	1	4	338	0.00	30.304 
04:40	19.7	19.7	19.7	80	14.6	2	5	315	0.00	30.304 
04:45	19.7	19.7	19.7	81	14.8	1	5	248	0.00	30.305 
04:50	19.7	19.7	19.7	81	14.8	1	3	270	0.00	30.305 
04:55	19.7	19.7	19.7	81	14.8	2	4	248	0.00	30.305 
05:00	19.7	19.7	19.7	81	14.8	1	3	248	0.00	30.310 
05:05	19.7	19.7	19.7	81	14.8	2	5	248	0.00	30.310 
05:10	19.1	19.1	19.1	79	13.7	2	6	248	0.00	30.310 
05:15	18.6	18.6	18.6	79	13.2	2	6	248	0.00	30.320 
05:20	18.4	18.4	18.4	79	13.0	2	4	315	0.00	30.320 
05:25	18.1	18.1	18.1	79	12.7	2	5	248	0.00	30.320 
05:30	18.0	18.0	18.0	79	12.6	2	5	270	0.00	30.321 
05:35	18.0	18.0	18.0	79	12.6	2	4	270	0.00	30.321 
05:40	18.0	18.0	18.0	79	12.6	1	3	270	0.00	30.321 
05:45	18.1	18.1	18.1	80	13.0	1	4	225	0.00	30.327 
05:50	18.0	18.0	18.0	79	12.6	2	4	248	0.00	30.327 
05:55	18.0	18.0	18.0	79	12.6	2	3	248	0.00	30.327 
06:00	18.0	18.0	18.0	79	12.6	2	3	270	0.00	30.335 
06:05	18.0	18.0	18.0	80	12.9	1	4	248	0.00	30.335 
06:10	18.0	18.0	18.0	80	12.9	2	5	248	0.00	30.335 
06:15	18.0	18.0	18.0	80	12.9	1	3	248	0.00	30.337 
06:20	18.0	18.0	18.0	80	12.9	2	4	270	0.00	30.337 
06:25	18.0	18.0	18.0	80	12.9	1	4	338	0.00	30.337 
06:30	18.0	18.0	18.0	80	12.9	2	5	248	0.00	30.336 
06:35	17.8	17.8	17.8	80	12.7	1	4	315	0.00	30.336 
06:40	17.8	17.8	17.8	80	12.7	1	4	315	0.00	30.336 
06:45	18.0	18.0	18.0	80	12.9	1	3	248	0.00	30.338 
06:50	18.0	18.0	18.0	80	12.9	1	4	270	0.00	30.338 
06:55	18.0	18.0	18.0	80	12.9	1	3	270	0.00	30.338 
07:00	18.0	18.0	18.0	80	12.9	1	2	270	0.00	30.351 
07:05	18.1	18.1	18.1	80	13.0	2	4	315	0.00	30.351 
07:10	18.0	18.0	18.0	80	12.9	1	5	315	0.00	30.351 
07:15	18.0	18.0	18.0	80	12.9	2	5	248	0.00	30.358 
07:20	18.1	18.1	18.1	80	13.0	2	5	248	0.00	30.358 
07:25	18.1	18.1	18.1	80	13.0	1	3	248	0.00	30.358 
07:30	18.3	18.3	18.3	80	13.2	0	3	248	0.00	30.378 
07:35	18.4	18.4	18.4	80	13.3	0	2	248	0.00	30.378 
07:40	18.6	18.6	18.6	81	13.8	1	3	248	0.00	30.378 
07:45	18.8	18.8	18.8	80	13.7	1	3	270	0.00	30.383 
07:50	18.9	18.9	18.9	80	13.8	1	3	270	0.00	30.383 
07:55	19.1	19.1	19.1	80	14.0	1	3	270	0.00	30.383 
08:00	19.1	19.1	19.1	80	14.0	1	3	270	0.00	30.383 
08:05	19.2	19.2	19.2	80	14.1	1	2	270	0.00	30.383 
08:10	19.2	19.2	19.2	80	14.1	1	4	338	0.00	30.383 
08:15	19.2	19.2	19.2	79	13.8	1	3	248	0.00	30.391 
08:20	19.2	19.2	19.2	79	13.8	1	2	315	0.00	30.391 
08:25	19.4	19.4	19.4	80	14.3	0	1	315	0.00	30.391 
08:30	19.4	19.4	19.4	79	14.0	1	4	270	0.00	30.400 
08:35	19.2	19.2	19.2	79	13.8	1	3	270	0.00	30.400 
08:40	19.4	19.4	19.4	79	14.0	1	3	0	0.00	30.400 
08:45	19.5	19.5	19.5	79	14.1	1	4	248	0.00	30.415 
08:50	19.5	19.5	19.5	79	14.1	1	4	292	0.00	30.415 
08:55	19.5	19.5	19.5	78	13.8	1	4	315	0.01	30.415 
09:00	19.5	19.5	19.5	78	13.8	0	3	315	0.00	30.414 
09:05	19.7	19.7	19.7	78	14.0	1	3	248	0.00	30.414 
09:10	19.7	19.7	19.7	78	14.0	1	3	248	0.00	30.414 
09:15	19.9	19.9	19.9	78	14.2	0	3	248	0.00	30.426 
09:20	19.9	19.9	19.9	78	14.2	1	4	338	0.00	30.426 
09:25	20.0	20.0	20.0	79	14.6	0	1	315	0.00	30.426 
09:30	20.0	20.0	20.0	79	14.6	1	3	315	0.00	30.429 
09:35	20.0	20.0	20.0	78	14.3	1	4	270	0.00	30.429 
09:40	20.0	20.0	20.0	77	14.0	1	3	315	0.00	30.429 
09:45	20.2	20.2	20.2	77	14.2	1	3	315	0.00	30.432 
09:50	20.3	20.3	20.3	78	14.6	0	3	270	0.00	30.432 
09:55	20.5	20.5	20.5	77	14.5	0	2	270	0.00	30.432 
10:00	20.5	20.5	20.5	77	14.5	1	4	270	0.00	30.426 
10:05	20.5	20.5	20.5	77	14.5	1	3	270	0.00	30.426 
10:10	20.5	20.5	20.5	76	14.2	1	3	270	0.00	30.426 
10:15	20.5	20.5	20.5	77	14.5	1	3	338	0.00	30.429 
10:20	20.3	20.3	20.3	76	14.0	1	4	0	0.00	30.429 
10:25	20.5	20.5	20.5	77	14.5	1	2	292	0.00	30.429 
10:30	20.5	20.5	20.5	77	14.5	0	2	292	0.00	30.430 
10:35	20.6	20.6	20.6	77	14.6	0	2	292	0.00	30.430 
10:40	20.6	20.6	20.6	77	14.6	0	2	292	0.00	30.430 
10:45	20.6	20.6	20.6	77	14.6	0	3	292	0.00	30.427 
10:50	20.6	20.6	20.6	76	14.3	0	1	292	0.00	30.427 
10:55	20.8	20.8	20.8	76	14.5	0	1	292	0.00	30.427 
11:00	21.0	21.0	21.0	77	14.9	0	2	292	0.00	30.420 
11:05	21.1	21.1	21.1	77	15.0	0	2	292	0.00	30.420 
11:10	21.3	21.3	21.3	77	15.2	0	2	292	0.00	30.420 
11:15	21.3	21.3	21.3	76	14.9	0	2	292	0.00	30.417 
11:20	21.6	21.6	21.6	77	15.5	1	3	292	0.00	30.417 
11:25	21.8	21.8	21.8	76	15.4	1	3	292	0.00	30.417 
11:30	21.8	21.8	21.8	76	15.4	1	4	112	0.00	30.408 
11:35	21.8	21.8	21.8	76	15.4	0	2	112	0.00	30.408 
11:40	21.8	21.8	21.8	76	15.4	0	2	68	0.00	30.408 
11:45	21.9	21.9	21.9	76	15.5	0	0	---	0.00	30.409 
11:50	22.1	22.1	22.1	76	15.7	0	3	270	0.00	30.409 
11:55	22.2	22.2	22.2	76	15.8	0	2	270	0.00	30.409 
12:00	22.4	22.4	22.4	76	16.0	0	2	270	0.00	30.409 
12:05	22.4	22.4	22.4	75	15.7	0	1	270	0.00	30.409 
12:10	22.5	22.5	22.5	74	15.5	0	3	270	0.00	30.409 
12:15	22.7	22.7	22.7	75	16.0	1	3	292	0.00	30.390 
12:20	22.9	22.9	22.9	75	16.2	1	3	68	0.00	30.390 
12:25	23.0	23.0	23.0	75	16.3	0	1	68	0.00	30.390 
12:30	23.0	23.0	23.0	74	16.0	0	2	68	0.00	30.402 
12:35	23.0	23.0	23.0	74	16.0	0	2	68	0.00	30.402 
12:40	23.0	23.0	23.0	74	16.0	0	1	68	0.00	30.402 
12:45	23.2	23.2	23.2	73	15.9	0	1	68	0.00	30.404 
12:50	23.2	23.2	23.2	73	15.9	0	1	68	0.00	30.404 
12:55	23.2	23.2	23.2	73	15.9	0	2	292	0.00	30.404 
13:00	23.2	23.2	23.2	73	15.9	0	1	292	0.00	30.405 
13:05	23.3	23.3	23.3	73	15.9	0	2	292	0.00	30.405 
13:10	23.5	23.5	23.5	73	16.1	0	1	292	0.00	30.405 
13:15	23.3	23.3	23.3	72	15.6	0	1	292	0.00	30.415 
13:20	23.5	23.5	23.5	73	16.1	0	0	---	0.00	30.415 
13:25	23.6	23.6	23.6	73	16.2	0	1	292	0.00	30.415 
13:30	23.6	23.6	23.6	72	15.9	0	1	292	0.00	30.420 
13:35	23.6	23.6	23.6	73	16.2	0	1	292	0.00	30.420 
13:40	23.5	23.5	23.5	72	15.8	0	1	292	0.00	30.420 
13:45	23.3	23.3	23.3	71	15.3	0	0	---	0.00	30.402 
13:50	23.5	23.5	23.5	72	15.8	0	0	---	0.00	30.402 
13:55	23.6	23.6	23.6	72	15.9	0	1	292	0.00	30.402 
14:00	23.8	23.8	23.8	72	16.1	0	2	292	0.00	30.419 
14:05	23.8	23.8	23.8	71	15.8	0	1	292	0.00	30.419 
14:10	23.9	23.9	23.9	72	16.2	0	0	---	0.00	30.419 
14:15	23.9	23.9	23.9	71	15.9	0	2	292	0.00	30.423 
14:20	24.1	24.1	24.1	72	16.4	0	2	292	0.00	30.423 
14:25	24.1	24.1	24.1	71	16.1	0	1	292	0.00	30.423 
14:30	23.9	23.9	23.9	71	15.9	0	1	292	0.00	30.408 
14:35	24.1	24.1	24.1	72	16.4	0	1	292	0.00	30.408 
14:40	24.1	24.1	24.1	71	16.1	0	2	292	0.00	30.408 
14:45	24.1	24.1	24.1	71	16.1	0	1	292	0.00	30.433 
14:50	24.1	24.1	24.1	71	16.1	0	1	292	0.00	30.433 
14:55	24.2	24.2	24.2	71	16.2	0	2	292	0.00	30.433 
15:00	24.2	24.2	24.2	71	16.2	0	1	292	0.00	30.427 
15:05	24.2	24.2	24.2	71	16.2	0	1	292	0.00	30.427 
15:10	24.2	24.2	24.2	71	16.2	0	1	292	0.00	30.427 
15:15	24.2	24.2	24.2	71	16.2	0	2	292	0.00	30.443 
15:20	24.4	24.4	24.4	72	16.7	0	1	292	0.00	30.443 
15:25	24.4	24.4	24.4	71	16.4	0	0	---	0.00	30.443 
15:30	24.2	24.2	24.2	71	16.2	0	1	292	0.00	30.450 
15:35	24.2	24.2	24.2	71	16.2	0	2	292	0.00	30.450 
15:40	24.2	24.2	24.2	71	16.2	0	1	292	0.00	30.450 
15:45	24.4	24.4	24.4	71	16.4	0	1	292	0.00	30.470 
15:50	24.4	24.4	24.4	72	16.7	0	2	292	0.00	30.470 
15:55	24.4	24.4	24.4	72	16.7	0	2	292	0.00	30.470 
16:00	24.4	24.4	24.4	72	16.7	0	2	292	0.00	30.458 
16:05	24.4	24.4	24.4	71	16.4	0	1	292	0.00	30.458 
16:10	24.4	24.4	24.4	72	16.7	0	2	292	0.00	30.458 
16:15	24.4	24.4	24.4	72	16.7	0	1	292	0.00	30.469 
16:20	24.4	24.4	24.4	72	16.7	0	2	292	0.00	30.469 
16:25	24.5	24.5	24.5	71	16.5	0	2	292	0.00	30.469 
16:30	24.4	24.4	24.4	71	16.4	0	1	292	0.00	30.477 
16:35	24.5	24.5	24.5	71	16.5	0	1	292	0.00	30.477 
16:40	24.5	24.5	24.5	71	16.5	0	0	---	0.00	30.477 
16:45	24.5	24.5	24.5	71	16.5	0	1	292	0.00	30.470 
16:50	24.4	24.4	24.4	71	16.4	0	1	292	0.00	30.470 
16:55	24.4	24.4	24.4	71	16.4	0	2	292	0.00	30.470 
17:00	24.2	24.2	24.2	71	16.2	0	1	292	0.00	30.470 
17:05	24.4	24.4	24.4	72	16.7	0	1	292	0.00	30.470 
17:10	24.4	24.4	24.4	72	16.7	0	1	292	0.00	30.470 
17:15	24.4	24.4	24.4	71	16.4	0	1	292	0.00	30.480 
17:20	24.4	24.4	24.4	72	16.7	0	1	292	0.00	30.480 
17:25	24.4	24.4	24.4	72	16.7	0	1	292	0.00	30.480 
17:30	24.4	24.4	24.4	72	16.7	0	2	292	0.00	30.472 
17:35	24.2	24.2	24.2	71	16.2	0	1	292	0.00	30.472 
17:40	24.2	24.2	24.2	71	16.2	0	1	292	0.00	30.472 
17:45	24.2	24.2	24.2	71	16.2	0	1	292	0.00	30.458 
17:50	24.1	24.1	24.1	72	16.4	0	1	292	0.00	30.458 
17:55	24.1	24.1	24.1	72	16.4	0	1	292	0.00	30.458 
18:00	24.1	24.1	24.1	72	16.4	0	1	292	0.00	30.457 
18:05	23.9	23.9	23.9	72	16.2	0	2	292	0.00	30.457 
18:10	23.9	23.9	23.9	72	16.2	0	2	292	0.00	30.457 
18:15	23.9	23.9	23.9	72	16.2	0	2	292	0.00	30.463 
18:20	23.9	23.9	23.9	72	16.2	0	2	292	0.00	30.463 
18:25	24.1	24.1	24.1	72	16.4	0	2	292	0.00	30.463 
18:30	23.9	23.9	23.9	72	16.2	0	2	292	0.00	30.456 
18:35	23.9	23.9	23.9	73	16.5	0	1	292	0.00	30.456 
18:40	23.9	23.9	23.9	73	16.5	0	1	292	0.00	30.456 
18:45	23.9	23.9	23.9	73	16.5	0	2	292	0.00	30.455 
18:50	23.8	23.8	23.8	73	16.4	0	1	292	0.00	30.455 
18:55	23.6	23.6	23.6	73	16.2	0	1	292	0.00	30.455 
19:00	23.6	23.6	23.6	74	16.6	0	1	292	0.00	30.452 
19:05	23.6	23.6	23.6	74	16.6	0	0	---	0.00	30.452 
19:10	23.5	23.5	23.5	74	16.5	0	0	---	0.00	30.452 
19:15	23.3	23.3	23.3	74	16.3	0	1	292	0.00	30.444 
19:20	23.3	23.3	23.3	74	16.3	0	1	292	0.00	30.444 
19:25	23.2	23.2	23.2	75	16.5	0	0	---	0.00	30.444 
19:30	23.0	23.0	23.0	75	16.3	0	0	---	0.00	30.436 
19:35	22.9	22.9	22.9	75	16.2	0	0	---	0.00	30.436 
19:40	22.5	22.5	22.5	75	15.8	0	1	292	0.00	30.436 
19:45	22.4	22.4	22.4	75	15.7	0	0	---	0.00	30.434 
19:50	22.2	22.2	22.2	76	15.8	0	0	---	0.00	30.434 
19:55	22.1	22.1	22.1	76	15.7	0	0	---	0.00	30.434 
20:00	21.9	21.9	21.9	76	15.5	0	0	---	0.00	30.430 
20:05	21.8	21.8	21.8	76	15.4	0	0	---	0.00	30.430 
20:10	21.6	21.6	21.6	77	15.5	0	0	---	0.00	30.430 
20:15	21.4	21.4	21.4	77	15.3	0	0	---	0.00	30.431 
20:20	21.3	21.3	21.3	77	15.2	0	0	---	0.00	30.431 
20:25	21.1	21.1	21.1	78	15.3	0	0	---	0.00	30.431 
20:30	21.1	21.1	21.1	78	15.3	0	0	---	0.00	30.428 
20:35	21.1	21.1	21.1	78	15.3	0	0	---	0.00	30.428 
20:40	21.0	21.0	21.0	78	15.2	0	0	---	0.00	30.428 
20:45	21.0	21.0	21.0	78	15.2	0	0	---	0.00	30.434 
20:50	20.8	20.8	20.8	79	15.3	0	0	---	0.00	30.434 
20:55	20.6	20.6	20.6	79	15.1	0	0	---	0.00	30.434 
21:00	20.5	20.5	20.5	79	15.0	0	0	---	0.00	30.439 
21:05	20.3	20.3	20.3	79	14.8	0	0	---	0.00	30.439 
21:10	20.2	20.2	20.2	79	14.8	0	0	---	0.00	30.439 
21:15	19.9	19.9	19.9	80	14.7	0	0	---	0.00	30.432 
21:20	19.7	19.7	19.7	80	14.6	0	0	---	0.00	30.432 
21:25	19.5	19.5	19.5	80	14.4	0	0	---	0.00	30.432 
21:30	19.2	19.2	19.2	80	14.1	0	0	---	0.00	30.438 
21:35	19.2	19.2	19.2	81	14.3	0	0	---	0.00	30.438 
21:40	19.1	19.1	19.1	81	14.2	0	0	---	0.00	30.438 
21:45	18.9	18.9	18.9	81	14.1	0	0	---	0.00	30.428 
21:50	18.8	18.8	18.8	81	14.0	0	0	---	0.00	30.428 
21:55	18.4	18.4	18.4	81	13.6	0	0	---	0.00	30.428 
22:00	18.3	18.3	18.3	82	13.7	0	0	---	0.00	30.428 
22:05	18.1	18.1	18.1	82	13.5	0	0	---	0.00	30.428 
22:10	18.0	18.0	18.0	82	13.5	0	0	---	0.00	30.428 
22:15	17.8	17.8	17.8	82	13.3	0	0	---	0.00	30.435 
22:20	17.8	17.8	17.8	83	13.5	0	0	---	0.00	30.435 
22:25	17.7	17.7	17.7	83	13.4	0	0	---	0.00	30.435 
22:30	17.7	17.7	17.7	83	13.4	0	0	---	0.00	30.432 
22:35	17.5	17.5	17.5	83	13.2	0	0	---	0.00	30.432 
22:40	17.5	17.5	17.5	84	13.5	0	0	---	0.00	30.432 
22:45	17.3	17.3	17.3	84	13.3	0	0	---	0.00	30.429 
22:50	17.3	17.3	17.3	84	13.3	0	0	---	0.00	30.429 
22:55	17.2	17.2	17.2	84	13.2	0	0	---	0.00	30.429 
23:00	17.2	17.2	17.2	84	13.2	0	0	---	0.00	30.430 
23:05	17.0	17.0	17.0	84	13.0	0	0	---	0.00	30.430 
23:10	16.9	16.9	16.9	84	12.9	0	0	---	0.00	30.430 
23:15	16.7	16.7	16.7	85	13.0	0	0	---	0.00	30.431 
23:20	16.7	16.7	16.7	85	13.0	0	0	---	0.00	30.431 
23:25	16.7	16.7	16.7	85	13.0	0	0	---	0.00	30.431 
23:30	16.7	16.7	16.7	85	13.0	0	0	---	0.00	30.432 
23:35	16.7	16.7	16.7	85	13.0	0	0	---	0.00	30.432 
23:40	16.5	16.5	16.5	85	12.8	0	0	---	0.00	30.432 
23:45	16.4	16.4	16.4	85	12.7	0	0	---	0.00	30.436 
23:50	16.2	16.2	16.2	85	12.5	0	0	---	0.00	30.436 
23:55	16.2	16.2	16.2	85	12.5	0	0	---	0.00	30.436 

CoCoRaHS
IN-AL-39
A2 Web Hosting
Creative Commons License
GoDaddy
search engine by freefind advanced

loaded 2018-11-12 14:47:05 • last modified 2010-11-18 10:43:29
Privacy PolicyDisclaimer
• wx.awcolley.com is powered by PmWiki v.2002016 •
• all content (unless otherwise noted) © 2018 A W Colley